Time;durP1;ratioP1;P1;durP2;ratioP2;P2;SDS_P1;SDS_P2;PMS_P1;PMS_P2;Temp;Humidity;BMP_temperature;BMP_pressure;BME280_temperature;BME280_humidity;BME280_pressure;Samples;Min_cycle;Max_cycle;Signal;HPM_P1;HPM_P2
2021/10/05 00:01:31;;;;;;;11.63;10.63;;;12.80;99.90;;;;;;5075098;28;20625;-69
2021/10/05 00:03:58;;;;;;;12.60;11.53;;;12.80;99.90;;;;;;5073497;28;20699;-69
2021/10/05 00:06:24;;;;;;;13.30;12.20;;;12.80;99.90;;;;;;5074446;28;20594;-69
2021/10/05 00:08:51;;;;;;;14.10;12.30;;;12.80;99.90;;;;;;5075075;28;20611;-69
2021/10/05 00:11:17;;;;;;;13.27;11.98;;;12.80;99.90;;;;;;5074546;28;20613;-69
2021/10/05 00:13:43;;;;;;;14.68;12.82;;;12.80;99.90;;;;;;5074689;28;20200;-69
2021/10/05 00:16:10;;;;;;;12.70;11.60;;;12.80;99.90;;;;;;5074647;28;20658;-69
2021/10/05 00:18:36;;;;;;;14.87;13.47;;;12.70;99.90;;;;;;5074356;28;20232;-69
2021/10/05 00:21:04;;;;;;;14.90;13.40;;;12.80;99.90;;;;;;5074534;28;20625;-70
2021/10/05 00:23:31;;;;;;;14.67;13.27;;;12.80;99.90;;;;;;5073171;28;20204;-69
2021/10/05 00:25:57;;;;;;;15.80;14.20;;;12.80;99.90;;;;;;5074297;28;20606;-69
2021/10/05 00:28:23;;;;;;;15.95;14.35;;;12.80;99.90;;;;;;5074322;28;21064;-69
2021/10/05 00:30:50;;;;;;;16.13;14.63;;;12.80;99.90;;;;;;5074025;28;20195;-69
2021/10/05 00:33:16;;;;;;;16.02;14.63;;;12.80;99.90;;;;;;5074053;28;20966;-69
2021/10/05 00:35:45;;;;;;;17.87;16.17;;;12.70;99.90;;;;;;5073993;28;20200;-69
2021/10/05 00:38:11;;;;;;;16.27;14.70;;;12.70;99.90;;;;;;5074071;28;20614;-69
2021/10/05 00:40:39;;;;;;;17.97;16.17;;;12.70;99.90;;;;;;5074106;28;20674;-68
2021/10/05 00:43:06;;;;;;;18.17;16.40;;;12.70;99.90;;;;;;5073887;28;20604;-68
2021/10/05 00:45:32;;;;;;;17.60;15.93;;;12.70;99.90;;;;;;5073395;28;20192;-68
2021/10/05 00:47:58;;;;;;;19.50;17.40;;;12.60;99.90;;;;;;5074007;28;20680;-69
2021/10/05 00:50:24;;;;;;;20.07;18.10;;;12.70;99.90;;;;;;5074055;28;20595;-68
2021/10/05 00:52:51;;;;;;;20.10;18.20;;;12.70;99.90;;;;;;5074047;28;20618;-69
2021/10/05 00:55:17;;;;;;;21.67;19.43;;;12.70;99.90;;;;;;5074133;28;20210;-69
2021/10/05 00:57:44;;;;;;;20.40;18.23;;;12.70;99.90;;;;;;5073694;28;20614;-69
2021/10/05 01:00:16;;;;;;;21.20;19.20;;;12.70;99.90;;;;;;5073885;28;20211;-68
2021/10/05 01:02:45;;;;;;;20.93;18.97;;;12.70;99.90;;;;;;5073451;28;20561;-69
2021/10/05 01:05:12;;;;;;;21.60;19.30;;;12.70;99.90;;;;;;5073631;28;20599;-69
2021/10/05 01:07:39;;;;;;;24.40;20.03;;;12.60;99.90;;;;;;5073809;28;20656;-69
2021/10/05 01:10:05;;;;;;;21.57;19.37;;;12.60;99.90;;;;;;5073481;28;20594;-69
2021/10/05 01:12:32;;;;;;;22.47;20.27;;;12.60;99.90;;;;;;5073565;28;20623;-69
2021/10/05 01:14:58;;;;;;;24.13;21.53;;;12.70;99.90;;;;;;5073443;28;20613;-69
2021/10/05 01:17:25;;;;;;;21.93;19.60;;;12.60;99.90;;;;;;5073294;28;20653;-69
2021/10/05 01:19:51;;;;;;;21.80;19.60;;;12.60;99.90;;;;;;5073194;28;20606;-69
2021/10/05 01:22:17;;;;;;;28.83;19.70;;;12.60;99.90;;;;;;5073366;28;20210;-69
2021/10/05 01:24:44;;;;;;;21.67;19.48;;;12.60;99.90;;;;;;5073410;28;20603;-69
2021/10/05 01:27:11;;;;;;;21.50;19.40;;;12.50;99.90;;;;;;5073311;28;20651;-69
2021/10/05 01:29:37;;;;;;;21.17;19.08;;;12.50;99.90;;;;;;5073346;28;20208;-69
2021/10/05 01:32:05;;;;;;;20.77;18.55;;;12.60;99.90;;;;;;5073122;28;20211;-69
2021/10/05 01:34:32;;;;;;;20.58;18.40;;;12.60;99.90;;;;;;5073156;28;20199;-69
2021/10/05 01:37:01;;;;;;;21.55;19.45;;;12.60;99.90;;;;;;5073698;28;20196;-69
2021/10/05 01:39:33;;;;;;;19.00;17.17;;;12.60;99.90;;;;;;5073386;28;20207;-69
2021/10/05 01:42:04;;;;;;;18.88;17.02;;;12.60;99.90;;;;;;5073475;28;20203;-69
2021/10/05 01:44:32;;;;;;;19.38;17.48;;;12.60;99.90;;;;;;5073283;28;20173;-69
2021/10/05 01:46:58;;;;;;;22.80;19.63;;;12.60;99.90;;;;;;5073239;28;20227;-69
2021/10/05 01:49:25;;;;;;;21.30;18.50;;;12.60;99.90;;;;;;5073028;28;20617;-69
2021/10/05 01:51:52;;;;;;;23.50;17.53;;;12.60;99.90;;;;;;5073203;28;20211;-69
2021/10/05 01:54:18;;;;;;;20.20;18.10;;;12.60;99.90;;;;;;5073376;28;20615;-69
2021/10/05 01:56:46;;;;;;;20.80;18.80;;;12.50;99.90;;;;;;5073036;28;20208;-69
2021/10/05 01:59:14;;;;;;;19.20;17.20;;;12.50;99.90;;;;;;5076909;28;21141;-69
2021/10/05 02:01:41;;;;;;;19.05;17.17;;;12.50;99.90;;;;;;5076994;28;20606;-69
2021/10/05 02:04:09;;;;;;;19.60;17.45;;;12.50;99.90;;;;;;5077007;28;20196;-69
2021/10/05 02:06:37;;;;;;;19.08;16.98;;;12.50;99.90;;;;;;5076930;28;20192;-69
2021/10/05 02:09:05;;;;;;;17.87;16.17;;;12.40;99.90;;;;;;5076861;28;20263;-69
2021/10/05 02:11:31;;;;;;;17.95;16.25;;;12.40;99.90;;;;;;5076715;28;20630;-69
2021/10/05 02:13:59;;;;;;;16.70;15.00;;;12.40;99.90;;;;;;5077244;28;20204;-69
2021/10/05 02:16:25;;;;;;;17.20;15.07;;;12.40;99.90;;;;;;5076855;28;20564;-67
2021/10/05 02:18:51;;;;;;;15.70;14.20;;;12.40;99.90;;;;;;5076836;28;20204;-69
2021/10/05 02:21:18;;;;;;;15.30;13.77;;;12.40;99.90;;;;;;5076382;28;20210;-69
2021/10/05 02:26:32;;;;;;;15.18;13.65;;;12.40;99.90;;;;;;5076659;28;20178;-69
2021/10/05 02:28:58;;;;;;;15.27;13.87;;;12.40;99.90;;;;;;5076668;28;20226;-69
2021/10/05 02:31:25;;;;;;;15.20;13.48;;;12.40;99.90;;;;;;5076662;28;20610;-69
2021/10/05 02:33:51;;;;;;;14.23;12.82;;;12.40;99.90;;;;;;5076539;28;20200;-69
2021/10/05 02:36:18;;;;;;;13.32;11.20;;;12.40;99.90;;;;;;5075452;28;20200;-69
2021/10/05 02:38:44;;;;;;;12.63;11.43;;;12.40;99.90;;;;;;5075914;28;20200;-69
2021/10/05 02:41:10;;;;;;;12.50;11.20;;;12.30;99.90;;;;;;5076384;28;20208;-68
2021/10/05 02:43:37;;;;;;;12.55;11.35;;;12.30;99.90;;;;;;5076540;28;20208;-68
2021/10/05 02:46:03;;;;;;;12.02;10.88;;;12.30;99.90;;;;;;5076343;28;20192;-67
2021/10/05 02:48:30;;;;;;;12.20;11.10;;;12.30;99.90;;;;;;5076085;28;20223;-68
2021/10/05 02:50:56;;;;;;;11.73;10.70;;;12.30;99.90;;;;;;5076092;28;20625;-68
2021/10/05 02:53:23;;;;;;;13.03;11.77;;;12.30;99.90;;;;;;5075965;28;20925;-68
2021/10/05 02:55:49;;;;;;;12.55;11.25;;;12.40;99.90;;;;;;5076337;28;20957;-68
2021/10/05 02:58:16;;;;;;;14.35;12.90;;;12.40;99.90;;;;;;5076098;28;20195;-68
2021/10/05 03:00:43;;;;;;;13.20;11.90;;;12.30;99.90;;;;;;5075890;28;20188;-68
2021/10/05 03:03:10;;;;;;;12.45;11.35;;;12.30;99.90;;;;;;5062761;28;20188;-68
2021/10/05 03:05:36;;;;;;;14.50;13.07;;;12.30;99.90;;;;;;5074646;28;20196;-68
2021/10/05 03:08:07;;;;;;;13.57;12.27;;;12.30;99.90;;;;;;5075217;28;20661;-68
2021/10/05 03:10:36;;;;;;;12.95;11.77;;;12.30;99.90;;;;;;5074570;28;20188;-68
2021/10/05 03:13:03;;;;;;;13.10;11.80;;;12.30;99.90;;;;;;5075111;28;20290;-68
2021/10/05 03:15:32;;;;;;;13.50;11.18;;;12.20;99.90;;;;;;5074807;28;20204;-68
2021/10/05 03:17:59;;;;;;;12.98;11.93;;;12.20;99.90;;;;;;5075635;28;20259;-69
2021/10/05 03:20:25;;;;;;;12.43;10.38;;;12.20;99.90;;;;;;5075471;28;20188;-69
2021/10/05 03:22:51;;;;;;;12.60;11.40;;;12.20;99.90;;;;;;5075960;28;20207;-69
2021/10/05 03:25:18;;;;;;;13.00;10.47;;;12.20;99.90;;;;;;5075983;28;20207;-69
2021/10/05 03:27:44;;;;;;;12.33;11.13;;;12.20;99.90;;;;;;5075455;28;20689;-69
2021/10/05 03:30:11;;;;;;;13.75;12.30;;;12.20;99.90;;;;;;5075551;28;21168;-69
2021/10/05 03:32:38;;;;;;;10.93;9.93;;;12.20;99.90;;;;;;5075616;28;20215;-69
2021/10/05 03:35:04;;;;;;;12.50;11.50;;;12.20;99.90;;;;;;5074867;28;20208;-69
2021/10/05 03:37:31;;;;;;;12.27;11.07;;;12.20;99.90;;;;;;5075228;28;20616;-69
2021/10/05 03:39:57;;;;;;;13.73;11.50;;;12.20;99.90;;;;;;5075253;28;20605;-69
2021/10/05 03:42:23;;;;;;;13.07;11.70;;;12.30;99.90;;;;;;5075528;28;20927;-69
2021/10/05 03:44:50;;;;;;;12.45;11.15;;;12.30;99.90;;;;;;5074913;28;20693;-69
2021/10/05 03:47:16;;;;;;;13.23;11.17;;;12.20;99.90;;;;;;5074919;28;20216;-69
2021/10/05 03:49:42;;;;;;;12.77;11.52;;;12.20;99.90;;;;;;5075361;28;21208;-69
2021/10/05 03:52:09;;;;;;;14.40;13.10;;;12.20;99.90;;;;;;5074911;28;20200;-69
2021/10/05 03:54:35;;;;;;;13.70;12.33;;;12.20;99.90;;;;;;5075443;28;20540;-69
2021/10/05 03:57:02;;;;;;;12.52;11.43;;;12.20;99.90;;;;;;5074958;28;21214;-69
2021/10/05 03:59:28;;;;;;;12.00;10.80;;;12.20;99.90;;;;;;5075157;28;20617;-69
2021/10/05 04:01:54;;;;;;;12.50;11.30;;;12.30;99.90;;;;;;5074595;28;20618;-69
2021/10/05 04:04:21;;;;;;;11.80;10.70;;;12.20;99.90;;;;;;5074702;28;20638;-69
2021/10/05 04:06:47;;;;;;;13.10;11.97;;;12.20;99.90;;;;;;5074767;28;20636;-69
2021/10/05 04:09:14;;;;;;;12.87;11.50;;;12.20;99.90;;;;;;5074374;28;20668;-69
2021/10/05 04:11:40;;;;;;;14.90;13.50;;;12.20;99.90;;;;;;5074830;28;20613;-69
2021/10/05 04:14:06;;;;;;;15.05;13.45;;;12.20;99.90;;;;;;5075073;28;20712;-69
2021/10/05 04:16:34;;;;;;;14.57;12.90;;;12.10;99.90;;;;;;5074541;28;20194;-69
2021/10/05 04:19:00;;;;;;;15.82;14.27;;;12.10;99.90;;;;;;5074495;28;20594;-69
2021/10/05 04:21:27;;;;;;;15.65;14.02;;;12.10;99.90;;;;;;5073215;28;20200;-69
2021/10/05 04:23:53;;;;;;;17.23;15.50;;;12.10;99.90;;;;;;5074319;28;20200;-69
2021/10/05 04:26:19;;;;;;;16.25;14.43;;;12.10;99.90;;;;;;5074565;28;20585;-69
2021/10/05 04:28:45;;;;;;;17.00;15.23;;;12.10;99.90;;;;;;5074339;28;20219;-70
2021/10/05 04:31:12;;;;;;;18.63;16.08;;;12.10;99.90;;;;;;5074378;28;20553;-69
2021/10/05 04:33:38;;;;;;;17.17;15.30;;;12.10;99.90;;;;;;5074077;28;20200;-69
2021/10/05 04:36:04;;;;;;;20.38;15.73;;;12.10;99.90;;;;;;5074005;28;20617;-69
2021/10/05 04:38:31;;;;;;;18.10;16.17;;;12.00;99.90;;;;;;5073950;28;20200;-69
2021/10/05 04:40:57;;;;;;;16.52;14.93;;;12.00;99.90;;;;;;5074004;28;20261;-69
2021/10/05 04:43:23;;;;;;;18.42;16.50;;;12.00;99.90;;;;;;5073851;28;20204;-69
2021/10/05 04:45:50;;;;;;;16.97;15.13;;;12.00;99.90;;;;;;5074123;28;20199;-69
2021/10/05 04:48:16;;;;;;;22.53;17.10;;;12.00;99.90;;;;;;5072582;28;21070;-69
2021/10/05 04:50:42;;;;;;;19.20;17.25;;;12.10;99.90;;;;;;5074057;28;20614;-69
2021/10/05 04:53:09;;;;;;;19.80;17.67;;;12.10;99.90;;;;;;5073986;28;20580;-69
2021/10/05 04:55:37;;;;;;;19.02;16.45;;;12.10;99.90;;;;;;5073994;28;21125;-69
2021/10/05 04:58:03;;;;;;;17.15;14.10;;;12.10;99.90;;;;;;5074225;28;20593;-69
2021/10/05 05:00:30;;;;;;;18.23;15.98;;;12.10;99.90;;;;;;5073878;28;20204;-69
2021/10/05 05:02:56;;;;;;;17.55;15.68;;;12.10;99.90;;;;;;5072755;28;20200;-69
2021/10/05 05:05:23;;;;;;;16.60;14.90;;;12.20;99.90;;;;;;5074099;28;20204;-69
2021/10/05 05:07:49;;;;;;;22.52;18.63;;;12.10;99.90;;;;;;5073848;28;20606;-69
2021/10/05 05:10:18;;;;;;;26.83;24.23;;;12.10;99.90;;;;;;5072256;28;20290;-69
2021/10/05 05:12:44;;;;;;;18.10;16.30;;;12.10;99.90;;;;;;5073561;28;20705;-69
2021/10/05 05:15:13;;;;;;;17.40;15.55;;;12.10;99.90;;;;;;5073751;28;21121;-69
2021/10/05 05:17:41;;;;;;;18.97;16.53;;;12.20;99.90;;;;;;5073331;28;20242;-69
2021/10/05 05:20:09;;;;;;;25.87;17.03;;;12.10;99.90;;;;;;5073622;28;20621;-69
2021/10/05 05:22:37;;;;;;;17.90;16.00;;;12.10;99.90;;;;;;5073431;28;20626;-69
2021/10/05 05:25:05;;;;;;;21.83;16.47;;;12.10;99.90;;;;;;5072637;28;21009;-69
2021/10/05 05:27:31;;;;;;;17.95;16.05;;;12.10;99.90;;;;;;5073113;28;20610;-68
2021/10/05 05:29:58;;;;;;;19.02;17.00;;;12.10;99.90;;;;;;5073593;28;20216;-68
2021/10/05 05:32:27;;;;;;;18.27;14.80;;;12.10;99.90;;;;;;5075790;28;20554;-68
2021/10/05 05:34:53;;;;;;;19.77;17.05;;;12.10;99.90;;;;;;5079902;28;20234;-68
2021/10/05 05:37:20;;;;;;;20.17;16.83;;;12.10;99.90;;;;;;5080430;28;20199;-68
2021/10/05 05:39:47;;;;;;;21.83;18.00;;;12.10;99.90;;;;;;5079779;28;20191;-68
2021/10/05 05:42:13;;;;;;;18.95;16.10;;;12.20;99.90;;;;;;5079728;28;21009;-69
2021/10/05 05:44:40;;;;;;;22.52;16.35;;;12.20;99.90;;;;;;5079431;28;20199;-69
2021/10/05 05:47:07;;;;;;;18.02;15.95;;;12.20;99.90;;;;;;5079464;28;20833;-69
2021/10/05 05:49:34;;;;;;;22.90;18.52;;;12.10;99.90;;;;;;5080317;28;20223;-69
2021/10/05 05:52:00;;;;;;;24.38;17.70;;;12.20;99.90;;;;;;5080089;28;20199;-69
2021/10/05 05:54:26;;;;;;;23.30;17.45;;;12.30;99.90;;;;;;5080642;28;20200;-69
2021/10/05 05:56:53;;;;;;;19.27;15.48;;;12.30;99.90;;;;;;5080495;28;20657;-69
2021/10/05 05:59:19;;;;;;;18.98;16.08;;;12.30;99.90;;;;;;5080179;28;20219;-69
2021/10/05 06:01:45;;;;;;;24.33;17.23;;;12.30;99.90;;;;;;5080417;28;20214;-69
2021/10/05 06:04:12;;;;;;;21.25;17.38;;;12.20;99.90;;;;;;5079951;28;20204;-69
2021/10/05 06:06:38;;;;;;;21.40;16.83;;;12.20;99.90;;;;;;5079912;28;20377;-69
2021/10/05 06:09:04;;;;;;;18.60;15.82;;;12.20;99.90;;;;;;5079744;28;20296;-70
2021/10/05 06:11:37;;;;;;;17.10;15.30;;;12.30;99.90;;;;;;5079636;28;20702;-69
2021/10/05 06:14:04;;;;;;;16.60;14.68;;;12.30;99.90;;;;;;5080250;28;20253;-69
2021/10/05 06:16:31;;;;;;;19.95;16.25;;;12.10;99.90;;;;;;5079730;28;20224;-69
2021/10/05 06:18:57;;;;;;;25.00;16.85;;;12.10;99.90;;;;;;5079948;28;20624;-69
2021/10/05 06:21:23;;;;;;;19.98;15.77;;;12.10;99.90;;;;;;5079721;28;20202;-69
2021/10/05 06:23:51;;;;;;;21.55;15.90;;;12.20;99.90;;;;;;5079905;28;20188;-69
2021/10/05 06:26:18;;;;;;;26.67;17.63;;;12.20;99.90;;;;;;5079481;28;20210;-69
2021/10/05 06:28:44;;;;;;;24.52;17.30;;;12.20;99.90;;;;;;5079756;28;20215;-69
2021/10/05 06:31:10;;;;;;;24.37;17.70;;;12.20;99.90;;;;;;5079705;28;20200;-69
2021/10/05 06:33:37;;;;;;;25.10;16.57;;;12.30;99.90;;;;;;5079974;28;20632;-72
2021/10/05 06:36:03;;;;;;;20.65;16.50;;;12.30;99.90;;;;;;5079879;28;20590;-68
2021/10/05 06:38:29;;;;;;;18.50;16.45;;;12.30;99.90;;;;;;5080158;28;20218;-69
2021/10/05 06:40:58;;;;;;;22.50;16.25;;;12.20;99.90;;;;;;5079506;28;20199;-69
2021/10/05 06:43:24;;;;;;;21.05;17.65;;;12.30;99.90;;;;;;5078506;28;20685;-69
2021/10/05 06:45:51;;;;;;;17.10;14.45;;;12.30;99.90;;;;;;5075810;28;20334;-70
2021/10/05 06:48:17;;;;;;;23.77;16.63;;;12.30;99.90;;;;;;5076500;28;20219;-69
2021/10/05 06:50:44;;;;;;;18.35;16.00;;;12.20;99.90;;;;;;5076867;28;20648;-69
2021/10/05 06:53:15;;;;;;;18.45;15.13;;;12.20;99.90;;;;;;5076884;28;20655;-69
2021/10/05 06:55:43;;;;;;;20.10;15.93;;;12.20;99.90;;;;;;5076819;28;20208;-69
2021/10/05 06:58:10;;;;;;;18.88;15.40;;;12.20;99.90;;;;;;5076811;28;20210;-69
2021/10/05 07:00:39;;;;;;;20.58;15.60;;;12.30;99.90;;;;;;5076583;28;20200;-69
2021/10/05 07:03:05;;;;;;;17.95;14.40;;;12.20;99.90;;;;;;5075237;28;20211;-69
2021/10/05 07:05:31;;;;;;;18.67;15.95;;;12.20;99.90;;;;;;5076495;28;20188;-69
2021/10/05 07:08:08;;;;;;;18.80;16.10;;;12.20;99.90;;;;;;5076240;28;20652;-69
2021/10/05 07:10:35;;;;;;;20.67;16.65;;;12.20;99.90;;;;;;5076045;28;20196;-69
2021/10/05 07:13:02;;;;;;;20.75;16.65;;;12.30;99.90;;;;;;5076389;28;20204;-69
2021/10/05 07:15:29;;;;;;;19.60;16.75;;;12.30;99.90;;;;;;5076410;28;20203;-69
2021/10/05 07:17:56;;;;;;;23.23;16.17;;;12.30;99.90;;;;;;5075910;28;20228;-69
2021/10/05 07:20:23;;;;;;;27.50;18.48;;;12.40;99.90;;;;;;5076376;28;20592;-69
2021/10/05 07:22:49;;;;;;;22.58;17.15;;;12.40;99.90;;;;;;5076340;28;20670;-69
2021/10/05 07:25:16;;;;;;;27.02;17.00;;;12.50;99.90;;;;;;5075708;28;20564;-69
2021/10/05 07:27:52;;;;;;;25.77;17.17;;;12.50;99.90;;;;;;5075970;28;20206;-69
2021/10/05 07:30:23;;;;;;;22.52;15.43;;;12.60;99.90;;;;;;5075822;28;20294;-69
2021/10/05 07:33:01;;;;;;;23.85;16.35;;;12.70;99.90;;;;;;5076059;28;20219;-68
2021/10/05 07:35:28;;;;;;;28.70;15.80;;;12.70;99.90;;;;;;5076267;28;20230;-68
2021/10/05 07:37:55;;;;;;;20.23;15.17;;;12.80;99.90;;;;;;5076452;28;20618;-68
2021/10/05 07:40:23;;;;;;;23.90;15.70;;;12.80;99.90;;;;;;5074583;28;20625;-68
2021/10/05 07:42:51;;;;;;;19.00;14.80;;;12.90;99.90;;;;;;5075482;28;20606;-68
2021/10/05 07:45:18;;;;;;;22.90;14.67;;;12.80;99.90;;;;;;5077166;28;20628;-68
2021/10/05 07:47:45;;;;;;;18.40;13.70;;;12.90;99.90;;;;;;5075815;28;21010;-68
2021/10/05 07:50:12;;;;;;;20.10;13.80;;;12.90;99.90;;;;;;5073693;28;21235;-68
2021/10/05 07:52:40;;;;;;;19.70;14.97;;;13.10;99.90;;;;;;5075291;28;20621;-68
2021/10/05 07:55:06;;;;;;;16.87;11.80;;;13.20;99.90;;;;;;5075047;28;20625;-69
2021/10/05 07:57:33;;;;;;;16.23;12.47;;;13.30;99.90;;;;;;5075153;28;20622;-69
2021/10/05 07:59:59;;;;;;;18.33;13.83;;;13.30;99.90;;;;;;5075127;28;21183;-68
2021/10/05 08:02:26;;;;;;;20.63;14.43;;;13.30;99.90;;;;;;5075240;28;20629;-68
2021/10/05 08:04:53;;;;;;;14.13;11.50;;;13.30;99.90;;;;;;5075143;28;20701;-69
2021/10/05 08:07:20;;;;;;;16.00;12.90;;;13.20;99.90;;;;;;5073274;28;20646;-69
2021/10/05 08:09:46;;;;;;;19.90;12.13;;;13.30;99.90;;;;;;5074387;28;20641;-68
2021/10/05 08:12:13;;;;;;;16.90;12.20;;;13.20;99.90;;;;;;5074838;28;20912;-69
2021/10/05 08:14:39;;;;;;;17.73;12.97;;;13.20;99.90;;;;;;5075260;28;20610;-68
2021/10/05 08:17:06;;;;;;;20.40;15.07;;;13.20;99.90;;;;;;5074521;28;20634;-68
2021/10/05 08:19:32;;;;;;;17.20;12.80;;;13.20;99.90;;;;;;5075177;28;20579;-68
2021/10/05 08:21:58;;;;;;;18.07;13.47;;;13.40;99.90;;;;;;5075036;28;20606;-68
2021/10/05 08:24:25;;;;;;;15.80;11.47;;;13.60;99.90;;;;;;5074979;28;20604;-68
2021/10/05 08:26:52;;;;;;;15.43;11.43;;;13.50;99.90;;;;;;5074651;28;20618;-68
2021/10/05 08:29:18;;;;;;;17.20;12.07;;;13.50;99.90;;;;;;5073857;28;20719;-68
2021/10/05 08:31:46;;;;;;;15.10;11.10;;;13.80;99.90;;;;;;5075286;28;20611;-68
2021/10/05 08:34:13;;;;;;;13.30;10.50;;;13.80;99.90;;;;;;5073077;28;20606;-68
2021/10/05 08:36:39;;;;;;;12.73;9.37;;;13.70;99.90;;;;;;5074695;28;20606;-68
2021/10/05 08:39:05;;;;;;;16.50;10.77;;;13.80;99.90;;;;;;5074336;28;20620;-69
2021/10/05 08:41:32;;;;;;;14.30;10.40;;;13.70;99.90;;;;;;5074058;28;21160;-68
2021/10/05 08:43:59;;;;;;;11.93;9.43;;;13.50;99.90;;;;;;5074174;28;20945;-69
2021/10/05 08:46:28;;;;;;;21.73;10.80;;;13.50;99.90;;;;;;5073869;28;20642;-68
2021/10/05 08:48:54;;;;;;;14.00;9.90;;;13.40;99.90;;;;;;5074286;28;20638;-67
2021/10/05 08:51:21;;;;;;;12.87;10.13;;;13.40;99.90;;;;;;5074315;28;21148;-67
2021/10/05 08:53:47;;;;;;;13.93;10.23;;;13.50;99.90;;;;;;5074177;28;20622;-67
2021/10/05 08:56:15;;;;;;;16.73;10.03;;;13.50;99.90;;;;;;5074198;28;20598;-68
2021/10/05 08:58:42;;;;;;;15.10;10.73;;;13.40;99.90;;;;;;5074095;28;20606;-68
2021/10/05 09:01:12;;;;;;;18.17;11.83;;;13.60;99.90;;;;;;5073944;28;21175;-68
2021/10/05 09:03:53;;;;;;;16.30;11.93;;;13.60;99.90;;;;;;5073974;28;20948;-67
2021/10/05 09:06:23;;;;;;;17.50;12.17;;;13.70;99.90;;;;;;5073732;28;20626;-68
2021/10/05 09:08:51;;;;;;;16.43;12.27;;;13.80;99.90;;;;;;5073217;28;20608;-68
2021/10/05 09:11:20;;;;;;;14.00;10.13;;;14.00;99.90;;;;;;5073683;28;20610;-69
2021/10/05 09:13:55;;;;;;;15.37;10.87;;;14.10;99.90;;;;;;5073543;28;20622;-69
2021/10/05 09:16:30;;;;;;;10.00;9.00;;;14.00;99.90;;;;;;5073387;28;20581;-68
2021/10/05 09:18:58;;;;;;;11.17;9.43;;;14.10;99.90;;;;;;5071599;28;20617;-69
2021/10/05 09:21:31;;;;;;;13.80;9.37;;;14.00;99.90;;;;;;5074230;28;20629;-70
2021/10/05 09:24:06;;;;;;;14.03;8.43;;;14.20;99.90;;;;;;5073907;28;20617;-69
2021/10/05 09:26:54;;;;;;;9.53;8.17;;;14.60;99.90;;;;;;5074509;28;20582;-68
2021/10/05 09:29:23;;;;;;;8.47;7.57;;;14.60;99.90;;;;;;5074329;28;20594;-68
2021/10/05 09:31:54;;;;;;;7.90;7.13;;;14.50;99.90;;;;;;5073369;28;20618;-68
2021/10/05 09:34:35;;;;;;;8.90;6.90;;;14.60;99.90;;;;;;5073732;28;20598;-69
2021/10/05 09:37:26;;;;;;;4.60;4.20;;;14.90;99.90;;;;;;5074395;28;20582;-68
2021/10/05 09:39:55;;;;;;;4.73;4.17;;;15.10;99.90;;;;;;5071584;28;20656;-68
2021/10/05 09:42:35;;;;;;;5.20;4.80;;;15.00;99.90;;;;;;5073921;28;21168;-68
2021/10/05 09:45:09;;;;;;;3.70;3.40;;;15.30;99.90;;;;;;5073806;28;20618;-68
2021/10/05 09:47:49;;;;;;;5.07;4.60;;;14.90;99.90;;;;;;5073474;28;20633;-69
2021/10/05 09:50:17;;;;;;;5.13;3.23;;;14.90;99.90;;;;;;5073698;28;20656;-68
2021/10/05 09:52:46;;;;;;;3.20;2.90;;;14.80;99.90;;;;;;5073423;28;20973;-68
2021/10/05 09:55:16;;;;;;;5.97;3.43;;;14.70;99.90;;;;;;5073559;28;20605;-68
2021/10/05 09:57:42;;;;;;;3.87;2.97;;;14.50;99.90;;;;;;5073407;28;20599;-68
2021/10/05 10:00:10;;;;;;;2.83;2.73;;;14.60;99.90;;;;;;5073254;28;20633;-68
2021/10/05 10:02:38;;;;;;;6.07;3.30;;;14.60;99.90;;;;;;5073406;28;20629;-69
2021/10/05 10:05:11;;;;;;;5.93;3.10;;;14.50;99.90;;;;;;5073646;28;21151;-68
2021/10/05 10:07:41;;;;;;;2.67;2.47;;;14.60;99.90;;;;;;5073982;28;20570;-69
2021/10/05 10:10:11;;;;;;;2.80;2.60;;;14.50;99.90;;;;;;5065058;28;20661;-68
2021/10/05 10:12:41;;;;;;;3.97;3.27;;;14.40;99.90;;;;;;5067104;28;20688;-69
2021/10/05 10:15:09;;;;;;;3.00;2.80;;;14.40;99.90;;;;;;5072886;28;20618;-68
2021/10/05 10:17:36;;;;;;;3.03;2.80;;;14.60;99.90;;;;;;5072796;28;20733;-68
2021/10/05 10:20:03;;;;;;;2.70;2.50;;;14.60;99.90;;;;;;5074633;28;20622;-68
2021/10/05 10:22:29;;;;;;;2.63;2.43;;;14.60;99.90;;;;;;5062038;28;20625;-68
2021/10/05 10:24:59;;;;;;;2.30;2.20;;;14.70;99.90;;;;;;5077103;28;20597;-68
2021/10/05 10:27:26;;;;;;;2.43;2.23;;;14.90;99.90;;;;;;5077066;28;20697;-69
2021/10/05 10:29:53;;;;;;;2.10;2.00;;;15.30;99.90;;;;;;5077137;28;21176;-69
2021/10/05 10:32:25;;;;;;;4.97;2.60;;;15.20;99.90;;;;;;5077521;28;20618;-69
2021/10/05 10:35:05;;;;;;;2.10;2.00;;;15.50;99.90;;;;;;5077873;28;20593;-69
2021/10/05 10:37:42;;;;;;;2.40;2.30;;;15.40;99.90;;;;;;5077898;28;20606;-69
2021/10/05 10:40:09;;;;;;;2.10;2.00;;;15.70;99.90;;;;;;5078137;28;20721;-69
2021/10/05 10:42:35;;;;;;;1.97;1.87;;;15.60;99.90;;;;;;5077644;28;20606;-69
2021/10/05 10:45:40;;;;;;;2.40;2.30;;;15.40;99.90;;;;;;5076835;28;20958;-70
2021/10/05 10:48:07;;;;;;;2.40;1.90;;;15.90;99.90;;;;;;5074090;28;20656;-70
2021/10/05 10:50:36;;;;;;;2.93;1.80;;;16.00;99.90;;;;;;5077620;28;20653;-70
2021/10/05 10:53:07;;;;;;;1.87;1.60;;;15.80;99.90;;;;;;5077340;28;20594;-69
2021/10/05 10:55:36;;;;;;;1.83;1.20;;;15.60;99.90;;;;;;5077109;28;20693;-70
2021/10/05 10:58:05;;;;;;;1.23;1.13;;;15.60;99.90;;;;;;5078586;28;20616;-69
2021/10/05 11:00:33;;;;;;;1.48;1.38;;;15.50;99.90;;;;;;5069940;28;20831;-69
2021/10/05 11:03:02;;;;;;;1.90;1.80;;;16.00;99.90;;;;;;5060236;28;20195;-69
2021/10/05 11:05:36;;;;;;;1.50;1.40;;;16.40;99.90;;;;;;5076093;28;20630;-69
2021/10/05 11:08:12;;;;;;;3.20;1.40;;;16.60;99.90;;;;;;5071146;28;20715;-69
2021/10/05 11:10:39;;;;;;;1.57;1.20;;;16.80;99.90;;;;;;5066191;28;20671;-69
2021/10/05 11:13:07;;;;;;;1.80;1.70;;;17.60;99.90;;;;;;5074480;28;20622;-68
2021/10/05 11:15:40;;;;;;;1.10;1.00;;;17.80;99.90;;;;;;5075054;28;21277;-69
2021/10/05 11:18:22;;;;;;;5.47;1.33;;;17.30;99.90;;;;;;5075245;28;20303;-68
2021/10/05 11:21:06;;;;;;;1.67;1.40;;;17.30;99.90;;;;;;5074359;28;20610;-69
2021/10/05 11:23:43;;;;;;;1.53;1.43;;;17.20;99.90;;;;;;5074764;28;20628;-68
2021/10/05 11:26:09;;;;;;;1.30;1.23;;;16.80;99.90;;;;;;5075548;28;20581;-69
2021/10/05 11:28:42;;;;;;;1.63;1.53;;;17.20;99.90;;;;;;5076021;28;20587;-70
2021/10/05 11:31:11;;;;;;;1.47;1.33;;;16.90;99.90;;;;;;5075794;28;20658;-69
2021/10/05 11:33:40;;;;;;;1.60;1.13;;;17.20;99.90;;;;;;5077536;28;20622;-69
2021/10/05 11:36:20;;;;;;;1.40;1.30;;;18.30;99.90;;;;;;5077631;28;20689;-69
2021/10/05 11:38:48;;;;;;;3.70;1.50;;;17.90;99.90;;;;;;5078149;28;20577;-69
2021/10/05 11:41:16;;;;;;;0.93;0.93;;;17.20;99.90;;;;;;5076253;28;21187;-68
2021/10/05 11:43:51;;;;;;;3.20;1.00;;;16.40;99.90;;;;;;5074647;28;20689;-68
2021/10/05 11:46:24;;;;;;;1.30;1.20;;;16.20;99.90;;;;;;5074721;28;20647;-68
2021/10/05 11:48:56;;;;;;;1.10;1.10;;;16.40;99.90;;;;;;5075113;28;20642;-68
2021/10/05 11:51:29;;;;;;;1.33;1.23;;;16.30;99.90;;;;;;5075349;28;20686;-69
2021/10/05 11:53:58;;;;;;;1.40;1.30;;;16.50;99.90;;;;;;5061052;28;20603;-68
2021/10/05 11:56:25;;;;;;;1.60;1.23;;;17.00;99.90;;;;;;5075086;28;21142;-69
2021/10/05 11:58:54;;;;;;;1.00;1.00;;;17.80;99.90;;;;;;5074768;28;20626;-69
2021/10/05 12:01:28;;;;;;;1.53;1.20;;;18.10;99.90;;;;;;5055375;28;21176;-69
2021/10/05 12:04:08;;;;;;;1.33;1.23;;;18.40;99.90;;;;;;5070989;28;20721;-69
2021/10/05 12:06:38;;;;;;;1.07;0.97;;;18.90;99.90;;;;;;5065946;28;20686;-68
2021/10/05 12:09:07;;;;;;;0.87;0.87;;;18.30;99.90;;;;;;5070503;28;20613;-69
2021/10/05 12:11:39;;;;;;;1.00;0.97;;;17.90;99.90;;;;;;5074858;28;20753;-68
2021/10/05 12:14:07;;;;;;;1.33;1.10;;;17.80;99.90;;;;;;5076564;28;20991;-69
2021/10/05 12:16:34;;;;;;;0.90;0.90;;;17.60;99.90;;;;;;5075384;28;20979;-69
2021/10/05 12:19:00;;;;;;;1.07;0.90;;;17.80;99.90;;;;;;5076021;28;20601;-68
2021/10/05 12:21:27;;;;;;;1.03;0.93;;;17.70;99.90;;;;;;5078650;28;21156;-69
2021/10/05 12:23:59;;;;;;;1.40;1.30;;;17.60;99.90;;;;;;5077435;28;20730;-69
2021/10/05 12:26:27;;;;;;;0.90;0.90;;;18.00;99.90;;;;;;5083152;28;20720;-68
2021/10/05 12:29:04;;;;;;;0.90;0.80;;;18.40;99.90;;;;;;5083361;28;20602;-69
2021/10/05 12:31:32;;;;;;;0.80;0.80;;;18.30;99.90;;;;;;5075024;28;20657;-69
2021/10/05 12:34:08;;;;;;;1.00;1.00;;;19.20;99.90;;;;;;5075582;28;21117;-70
2021/10/05 12:36:37;;;;;;;1.63;0.80;;;18.90;99.90;;;;;;5075436;28;20570;-70
2021/10/05 12:39:15;;;;;;;1.90;0.70;;;19.40;99.90;;;;;;5073134;28;20621;-69
2021/10/05 12:41:43;;;;;;;3.73;1.00;;;19.50;99.90;;;;;;5075514;28;20574;-69